Time;durP1;ratioP1;P1;durP2;ratioP2;P2;SDS_P1;SDS_P2;PMS_P1;PMS_P2;Temp;Humidity;BMP_temperature;BMP_pressure;BME280_temperature;BME280_humidity;BME280_pressure;Samples;Min_cycle;Max_cycle;Signal;HPM_P1;HPM_P2
2022/09/26 00:01:59;;;;;;;7.18;2.58;;;11.50;99.90;;;;;;5070744;28;20079;-76
2022/09/26 00:04:27;;;;;;;7.55;2.97;;;11.50;99.90;;;;;;5071780;28;20063;-76
2022/09/26 00:06:55;;;;;;;5.85;2.58;;;11.50;99.90;;;;;;5072078;28;20043;-75
2022/09/26 00:09:22;;;;;;;4.82;2.50;;;11.50;99.90;;;;;;5071949;28;20318;-76
2022/09/26 00:11:48;;;;;;;4.93;2.45;;;11.50;99.90;;;;;;5070943;28;20037;-76
2022/09/26 00:14:17;;;;;;;5.28;2.58;;;11.50;99.90;;;;;;5071584;28;20383;-75
2022/09/26 00:16:43;;;;;;;7.75;2.60;;;11.50;99.90;;;;;;5071899;28;20037;-75
2022/09/26 00:19:09;;;;;;;5.25;2.40;;;11.50;99.90;;;;;;5063949;28;20048;-75
2022/09/26 00:21:35;;;;;;;5.82;2.50;;;11.50;99.90;;;;;;5063069;28;20044;-75
2022/09/26 00:24:01;;;;;;;5.95;2.65;;;11.50;99.90;;;;;;5069251;28;20032;-75
2022/09/26 00:26:29;;;;;;;4.82;2.58;;;11.50;99.90;;;;;;5072629;28;20041;-75
2022/09/26 00:28:55;;;;;;;4.78;2.05;;;11.40;99.90;;;;;;5066436;28;20549;-75
2022/09/26 00:31:30;;;;;;;5.60;2.40;;;11.40;99.90;;;;;;5070823;28;20040;-76
2022/09/26 00:33:56;;;;;;;4.93;2.15;;;11.40;99.90;;;;;;5070063;28;20055;-75
2022/09/26 00:36:22;;;;;;;6.35;2.10;;;11.50;99.90;;;;;;5071726;28;20040;-76
2022/09/26 00:38:47;;;;;;;7.50;2.40;;;11.40;99.90;;;;;;5067857;28;20033;-75
2022/09/26 00:41:15;;;;;;;4.25;2.03;;;11.40;99.90;;;;;;5071080;28;20137;-75
2022/09/26 00:43:54;;;;;;;4.55;2.20;;;11.40;99.90;;;;;;5070731;28;20375;-75
2022/09/26 00:46:40;;;;;;;8.15;2.42;;;11.30;99.90;;;;;;5081520;28;20040;-75
2022/09/26 00:49:28;;;;;;;5.90;2.22;;;11.30;99.90;;;;;;5070111;28;20025;-75
2022/09/26 00:52:00;;;;;;;4.80;2.28;;;11.30;99.90;;;;;;5069006;28;20037;-75
2022/09/26 00:54:27;;;;;;;;;;;11.30;99.90;;;;;;5070247;28;20044;-75
2022/09/26 00:56:55;;;;;;;5.43;2.40;;;11.30;99.90;;;;;;5070724;28;19947;-76
2022/09/26 00:59:28;;;;;;;5.22;2.92;;;11.30;99.90;;;;;;5052548;28;21014;-75
2022/09/26 01:01:57;;;;;;;5.50;2.92;;;11.30;99.90;;;;;;5069946;28;20067;-75
2022/09/26 01:04:27;;;;;;;7.93;2.60;;;11.30;99.90;;;;;;5070473;28;20127;-75
2022/09/26 01:06:58;;;;;;;5.88;2.67;;;11.30;99.90;;;;;;5069300;28;20037;-75
2022/09/26 01:09:24;;;;;;;6.18;2.92;;;11.30;99.90;;;;;;5072252;28;20043;-75
2022/09/26 01:11:50;;;;;;;4.97;2.45;;;11.30;99.90;;;;;;5070924;28;20041;-75
2022/09/26 01:14:16;;;;;;;8.93;2.85;;;11.30;99.90;;;;;;5070727;28;20044;-75
2022/09/26 01:16:50;;;;;;;6.57;3.08;;;11.30;99.90;;;;;;5070112;28;20508;-75
2022/09/26 01:19:24;;;;;;;8.00;3.00;;;11.30;99.90;;;;;;5061962;28;20040;-75
2022/09/26 01:22:28;;;;;;;7.22;3.05;;;11.30;99.90;;;;;;5069090;28;20044;-75
2022/09/26 01:25:21;;;;;;;6.05;2.95;;;11.30;99.90;;;;;;5028832;28;20148;-75
2022/09/26 01:27:56;;;;;;;5.70;3.10;;;11.30;99.90;;;;;;5069519;28;20048;-75
2022/09/26 01:30:27;;;;;;;7.55;3.40;;;11.30;99.90;;;;;;5064994;28;20048;-75
2022/09/26 01:33:24;;;;;;;8.55;3.10;;;11.30;99.90;;;;;;5060929;28;20438;-75
2022/09/26 01:36:05;;;;;;;6.05;2.88;;;11.30;99.90;;;;;;5049792;28;20460;-75
2022/09/26 01:38:36;;;;;;;5.30;3.03;;;11.30;99.90;;;;;;5069688;28;20045;-75
2022/09/26 01:41:17;;;;;;;6.75;3.10;;;11.30;99.90;;;;;;5063325;28;20102;-75
2022/09/26 01:43:55;;;;;;;6.40;3.00;;;11.30;99.90;;;;;;5063086;28;20470;-75
2022/09/26 01:46:42;;;;;;;6.50;3.05;;;11.20;99.90;;;;;;5083153;28;20040;-75
2022/09/26 01:49:15;;;;;;;5.88;3.10;;;11.30;99.90;;;;;;5069809;28;20394;-76
2022/09/26 01:52:04;;;;;;;7.53;3.55;;;11.30;99.90;;;;;;5062610;28;20085;-75
2022/09/26 01:54:38;;;;;;;6.10;2.85;;;11.30;99.90;;;;;;5057157;28;20494;-75
2022/09/26 01:57:08;;;;;;;8.35;3.20;;;11.30;99.90;;;;;;5069056;28;20391;-75
2022/09/26 01:59:39;;;;;;;7.90;3.00;;;11.30;99.90;;;;;;5066789;28;20052;-75
2022/09/26 02:02:11;;;;;;;7.35;3.15;;;11.30;99.90;;;;;;5069867;28;20051;-75
2022/09/26 02:04:42;;;;;;;8.65;4.25;;;11.30;99.90;;;;;;5069344;28;20507;-75
2022/09/26 02:07:15;;;;;;;5.70;3.20;;;11.30;99.90;;;;;;5069947;28;20036;-75
2022/09/26 02:09:47;;;;;;;6.25;3.13;;;11.30;99.90;;;;;;5069223;28;20067;-76
2022/09/26 02:12:35;;;;;;;7.97;3.13;;;11.30;99.90;;;;;;5062215;28;20052;-76
2022/09/26 02:15:06;;;;;;;7.57;3.60;;;11.30;99.90;;;;;;5068772;28;20036;-75
2022/09/26 02:17:37;;;;;;;5.27;3.10;;;11.30;99.90;;;;;;5069229;28;20234;-75
2022/09/26 02:20:13;;;;;;;7.32;3.42;;;11.30;99.90;;;;;;5067494;28;20127;-75
2022/09/26 02:22:40;;;;;;;7.78;3.83;;;11.40;99.90;;;;;;5052187;28;20097;-75
2022/09/26 02:25:07;;;;;;;6.45;3.25;;;11.30;99.90;;;;;;5060679;28;20514;-76
2022/09/26 02:27:33;;;;;;;10.23;4.22;;;11.40;99.90;;;;;;5067675;28;20051;-75
2022/09/26 02:29:59;;;;;;;8.18;3.55;;;11.40;99.90;;;;;;5068842;28;20085;-76
2022/09/26 02:32:28;;;;;;;7.15;3.65;;;11.30;99.90;;;;;;5068962;28;20029;-75
2022/09/26 02:34:55;;;;;;;7.75;4.32;;;11.40;99.90;;;;;;5066098;28;20066;-75
2022/09/26 02:37:21;;;;;;;7.22;3.80;;;11.40;99.90;;;;;;5067947;28;20060;-75
2022/09/26 02:39:49;;;;;;;8.82;3.90;;;11.40;99.90;;;;;;5069161;28;20056;-75
2022/09/26 02:42:27;;;;;;;8.65;4.63;;;11.30;99.90;;;;;;5069333;28;20040;-75
2022/09/26 02:45:02;;;;;;;9.13;4.00;;;11.40;99.90;;;;;;5052364;28;20452;-75
2022/09/26 02:47:43;;;;;;;8.07;4.53;;;11.40;99.90;;;;;;5055527;28;20127;-75
2022/09/26 02:50:08;;;;;;;8.05;4.22;;;11.40;99.90;;;;;;5069786;28;20036;-76
2022/09/26 02:52:40;;;;;;;6.97;3.65;;;11.40;99.90;;;;;;5072022;28;20079;-76
2022/09/26 02:55:27;;;;;;;7.53;4.00;;;11.40;99.90;;;;;;5072345;28;20060;-76
2022/09/26 02:58:14;;;;;;;7.50;4.00;;;11.30;99.90;;;;;;5072978;28;20053;-76
2022/09/26 03:01:03;;;;;;;7.95;4.00;;;11.30;99.90;;;;;;5072671;28;20342;-76
2022/09/26 03:03:32;;;;;;;6.40;4.05;;;11.40;99.90;;;;;;5073178;28;20048;-76
2022/09/26 03:05:59;;;;;;;7.60;4.32;;;11.30;99.90;;;;;;5071180;28;20492;-76
2022/09/26 03:08:28;;;;;;;7.28;4.00;;;11.40;99.90;;;;;;5072428;28;20045;-76
2022/09/26 03:10:57;;;;;;;7.85;4.50;;;11.30;99.90;;;;;;5067336;28;20072;-76
2022/09/26 03:13:24;;;;;;;8.90;4.10;;;11.30;99.90;;;;;;5066489;28;20044;-75
2022/09/26 03:15:54;;;;;;;8.45;4.15;;;11.30;99.90;;;;;;5070194;28;20051;-75
2022/09/26 03:18:23;;;;;;;9.70;4.20;;;11.30;99.90;;;;;;5063705;28;20059;-75
2022/09/26 03:20:52;;;;;;;11.45;4.43;;;11.30;99.90;;;;;;5071911;28;20036;-75
2022/09/26 03:23:24;;;;;;;6.72;4.32;;;11.30;99.90;;;;;;5069483;28;20037;-75
2022/09/26 03:26:08;;;;;;;6.65;4.15;;;11.30;99.90;;;;;;5070162;28;20125;-75
2022/09/26 03:28:34;;;;;;;7.47;4.05;;;11.30;99.90;;;;;;5067750;28;20067;-75
2022/09/26 03:31:00;;;;;;;9.65;4.75;;;11.30;99.90;;;;;;5072212;28;20044;-75
2022/09/26 03:33:26;;;;;;;11.60;4.63;;;11.30;99.90;;;;;;5070622;28;20086;-75
2022/09/26 03:35:52;;;;;;;8.05;4.43;;;11.30;99.90;;;;;;5072552;28;20108;-75
2022/09/26 03:38:18;;;;;;;8.95;4.50;;;11.30;99.90;;;;;;5072024;28;20055;-75
2022/09/26 03:40:45;;;;;;;10.32;4.80;;;11.20;99.90;;;;;;5071528;28;20078;-75
2022/09/26 03:43:12;;;;;;;9.88;4.93;;;11.30;99.90;;;;;;5072055;28;20045;-75
2022/09/26 03:45:37;;;;;;;11.07;4.82;;;11.30;99.90;;;;;;5073618;28;20040;-75
2022/09/26 03:48:05;;;;;;;8.10;5.45;;;11.30;99.90;;;;;;5071192;28;20127;-75
2022/09/26 03:50:32;;;;;;;9.35;4.75;;;11.30;99.90;;;;;;5071887;28;20070;-75
2022/09/26 03:52:58;;;;;;;9.73;4.50;;;11.20;99.90;;;;;;5071588;28;20482;-75
2022/09/26 03:55:24;;;;;;;8.40;4.93;;;11.20;99.90;;;;;;5071824;28;20114;-75
2022/09/26 03:57:50;;;;;;;7.25;4.60;;;11.20;99.90;;;;;;5071276;28;20556;-75
2022/09/26 04:00:16;;;;;;;8.82;5.00;;;11.40;99.90;;;;;;5070877;28;20058;-75
2022/09/26 04:02:42;;;;;;;9.73;4.82;;;11.20;99.90;;;;;;5071828;28;20398;-75
2022/09/26 04:05:08;;;;;;;7.32;4.30;;;11.20;99.90;;;;;;5063593;28;20048;-75
2022/09/26 04:07:34;;;;;;;7.32;4.90;;;11.20;99.90;;;;;;5065010;28;20040;-75
2022/09/26 04:09:59;;;;;;;8.45;5.13;;;11.20;99.90;;;;;;5071323;28;20046;-75
2022/09/26 04:12:25;;;;;;;9.73;5.20;;;11.20;99.90;;;;;;5072055;28;20040;-75
2022/09/26 04:14:51;;;;;;;11.77;4.82;;;11.20;99.90;;;;;;5063332;28;20043;-75
2022/09/26 04:17:17;;;;;;;9.43;5.40;;;11.20;99.90;;;;;;5071812;28;20044;-75
2022/09/26 04:19:43;;;;;;;8.70;5.22;;;11.20;99.90;;;;;;5064214;28;20036;-75
2022/09/26 04:22:09;;;;;;;7.45;5.18;;;11.20;99.90;;;;;;5069305;28;20036;-77
2022/09/26 04:24:34;;;;;;;11.32;5.63;;;11.10;99.90;;;;;;5070231;28;20033;-76
2022/09/26 04:27:00;;;;;;;10.15;5.28;;;11.10;99.90;;;;;;5069256;28;20036;-75
2022/09/26 04:29:26;;;;;;;8.93;5.93;;;11.10;99.90;;;;;;5070223;28;20410;-76
2022/09/26 04:31:52;;;;;;;13.85;6.47;;;11.20;99.90;;;;;;5070227;28;20032;-77
2022/09/26 04:34:18;;;;;;;9.05;5.80;;;11.20;99.90;;;;;;5076215;28;20517;-77
2022/09/26 04:36:43;;;;;;;8.73;5.55;;;11.20;99.90;;;;;;5067524;28;20127;-77
2022/09/26 04:39:09;;;;;;;10.75;6.28;;;11.10;99.90;;;;;;5063301;28;20079;-76
2022/09/26 04:41:35;;;;;;;11.10;5.70;;;11.10;99.90;;;;;;5069952;28;20452;-76
2022/09/26 04:44:01;;;;;;;10.98;6.13;;;11.10;99.90;;;;;;5071068;28;20044;-77
2022/09/26 04:46:29;;;;;;;8.52;6.07;;;11.20;99.90;;;;;;5070818;28;20490;-77
2022/09/26 04:48:56;;;;;;;9.63;6.18;;;11.10;99.90;;;;;;5069465;28;20036;-76
2022/09/26 04:51:24;;;;;;;10.05;6.20;;;11.10;99.90;;;;;;5070104;28;20047;-77
2022/09/26 04:53:50;;;;;;;10.35;6.28;;;11.10;99.90;;;;;;5050403;28;20040;-77
2022/09/26 04:56:18;;;;;;;9.30;6.55;;;11.10;99.90;;;;;;5070070;28;20037;-77
2022/09/26 04:58:45;;;;;;;8.75;5.88;;;11.10;99.90;;;;;;5070400;28;20421;-76
2022/09/26 05:01:15;;;;;;;11.50;5.68;;;11.10;99.90;;;;;;5068592;28;20060;-76
2022/09/26 05:03:41;;;;;;;10.23;6.20;;;11.10;99.90;;;;;;5070419;28;20045;-77
2022/09/26 05:06:08;;;;;;;10.88;6.55;;;11.00;99.90;;;;;;5070188;28;20039;-77
2022/09/26 05:08:35;;;;;;;11.43;5.97;;;11.10;99.90;;;;;;5069191;28;20098;-77
2022/09/26 05:11:01;;;;;;;11.95;6.63;;;11.10;99.90;;;;;;5067662;28;20032;-77
2022/09/26 05:13:27;;;;;;;13.18;6.30;;;11.10;99.90;;;;;;5069214;28;20123;-77
2022/09/26 05:15:54;;;;;;;12.18;6.45;;;11.10;99.90;;;;;;5050220;28;20122;-77
2022/09/26 05:18:22;;;;;;;13.43;6.43;;;11.00;99.90;;;;;;5065673;28;20056;-76
2022/09/26 05:20:48;;;;;;;9.73;6.30;;;11.10;99.90;;;;;;5066476;28;20444;-76
2022/09/26 05:26:18;;;;;;;10.20;6.22;;;11.00;99.90;;;;;;5059163;28;20052;-76
2022/09/26 05:26:37;;;;;;;11.70;6.53;;;11.00;99.90;;;;;;5060870;28;20049;-76
2022/09/26 05:29:03;;;;;;;10.73;6.25;;;11.00;99.90;;;;;;5062800;28;20049;-77
2022/09/26 05:31:32;;;;;;;9.63;6.20;;;11.00;99.90;;;;;;5057358;28;20044;-76
2022/09/26 05:33:58;;;;;;;11.63;6.70;;;11.00;99.90;;;;;;5068797;28;20036;-77
2022/09/26 05:36:24;;;;;;;11.98;6.25;;;11.00;99.90;;;;;;5060310;28;20095;-78
2022/09/26 05:38:50;;;;;;;9.38;6.30;;;10.90;99.90;;;;;;5061937;28;20451;-76
2022/09/26 05:41:16;;;;;;;11.05;6.70;;;10.90;99.90;;;;;;5064214;28;20075;-78
2022/09/26 05:43:42;;;;;;;10.02;6.20;;;10.90;99.90;;;;;;5063021;28;20048;-76
2022/09/26 05:46:10;;;;;;;11.93;6.25;;;10.90;99.90;;;;;;5064197;28;20055;-75
2022/09/26 05:48:37;;;;;;;9.52;5.90;;;10.90;99.90;;;;;;5063386;28;20024;-76
2022/09/26 05:51:11;;;;;;;10.77;6.47;;;10.90;99.90;;;;;;5063972;28;20036;-76
2022/09/26 05:53:38;;;;;;;13.05;6.72;;;10.90;99.90;;;;;;5075298;28;20059;-77
2022/09/26 05:56:05;;;;;;;10.10;5.72;;;10.80;99.90;;;;;;5066382;28;20128;-76
2022/09/26 05:58:32;;;;;;;9.70;6.20;;;10.80;99.90;;;;;;5062301;28;20048;-75
2022/09/26 06:01:09;;;;;;;11.23;5.90;;;10.90;99.90;;;;;;5045144;28;20063;-75
2022/09/26 06:03:35;;;;;;;12.20;5.93;;;10.90;99.90;;;;;;5067462;28;20042;-77
2022/09/26 06:06:02;;;;;;;8.35;5.70;;;10.80;99.90;;;;;;5069198;28;20035;-75
2022/09/26 06:08:27;;;;;;;10.95;6.15;;;10.80;99.90;;;;;;5063712;28;20048;-76
2022/09/26 06:11:04;;;;;;;8.50;5.68;;;10.80;99.90;;;;;;5064425;28;20126;-75
2022/09/26 06:13:33;;;;;;;11.02;5.90;;;10.80;99.90;;;;;;5065371;28;20040;-74
2022/09/26 06:16:04;;;;;;;13.85;6.00;;;10.80;99.90;;;;;;5064507;28;20036;-74
2022/09/26 06:18:32;;;;;;;10.03;5.60;;;10.80;99.90;;;;;;5060884;28;20041;-75
2022/09/26 06:21:01;;;;;;;9.00;5.68;;;10.80;99.90;;;;;;5067036;28;20040;-75
2022/09/26 06:23:26;;;;;;;8.93;5.28;;;10.80;99.90;;;;;;5057556;28;20051;-75
2022/09/26 06:25:52;;;;;;;10.13;5.03;;;10.80;99.90;;;;;;5067287;28;20036;-75
2022/09/26 06:28:17;;;;;;;9.93;5.32;;;10.80;99.90;;;;;;5064752;28;20070;-75
2022/09/26 06:30:43;;;;;;;8.25;5.22;;;10.80;99.90;;;;;;5070665;28;20028;-75
2022/09/26 06:33:10;;;;;;;9.18;4.70;;;10.80;99.90;;;;;;5070620;28;20139;-75
2022/09/26 06:35:35;;;;;;;8.90;5.18;;;10.80;99.90;;;;;;5052602;28;20048;-75
2022/09/26 06:38:03;;;;;;;7.88;4.45;;;10.80;99.90;;;;;;5051913;28;20051;-75
2022/09/26 06:40:29;;;;;;;6.18;4.32;;;10.80;99.90;;;;;;5051707;28;20036;-75
2022/09/26 06:42:55;;;;;;;11.85;4.38;;;10.70;99.90;;;;;;5053119;28;20110;-75
2022/09/26 06:45:20;;;;;;;8.40;4.65;;;10.80;99.90;;;;;;5057471;28;20070;-75
2022/09/26 06:47:46;;;;;;;7.22;4.20;;;10.80;99.90;;;;;;5073659;28;20090;-75
2022/09/26 06:50:12;;;;;;;7.85;4.05;;;10.80;99.90;;;;;;5055929;28;20033;-75
2022/09/26 06:52:37;;;;;;;5.97;3.92;;;10.80;99.90;;;;;;5054848;28;20375;-75
2022/09/26 06:55:05;;;;;;;9.30;4.10;;;10.80;99.90;;;;;;5042169;28;20048;-75
2022/09/26 06:57:39;;;;;;;6.35;3.80;;;10.80;99.90;;;;;;5033737;28;20037;-76
2022/09/26 07:00:10;;;;;;;7.07;4.05;;;10.80;99.90;;;;;;5040757;28;20079;-75
2022/09/26 07:02:36;;;;;;;8.27;3.65;;;10.80;99.90;;;;;;5048356;28;20049;-75
2022/09/26 07:05:04;;;;;;;7.03;4.10;;;10.80;99.90;;;;;;5052835;28;20041;-75
2022/09/26 07:07:30;;;;;;;7.82;4.45;;;10.80;99.90;;;;;;5038311;28;20406;-75
2022/09/26 07:09:56;;;;;;;7.03;3.92;;;10.80;99.90;;;;;;5043227;28;20045;-75
2022/09/26 07:12:23;;;;;;;8.73;4.30;;;10.80;99.90;;;;;;5056476;28;20490;-75
2022/09/26 07:14:50;;;;;;;9.43;3.65;;;10.80;99.90;;;;;;5022722;28;20036;-75
2022/09/26 07:17:16;;;;;;;6.72;4.15;;;10.80;99.90;;;;;;5042410;28;20052;-76
2022/09/26 07:19:43;;;;;;;8.60;4.30;;;10.80;99.90;;;;;;5040042;28;20094;-75
2022/09/26 07:22:09;;;;;;;7.90;3.90;;;10.80;99.90;;;;;;5042617;28;20456;-75
2022/09/26 07:24:35;;;;;;;10.25;3.80;;;10.80;99.90;;;;;;5036880;28;20044;-75
2022/09/26 07:27:01;;;;;;;7.47;3.55;;;10.70;99.90;;;;;;5036365;28;20411;-75
2022/09/26 07:29:27;;;;;;;6.68;3.90;;;10.70;99.90;;;;;;5033285;28;20053;-75
2022/09/26 07:31:53;;;;;;;9.02;3.85;;;10.80;99.90;;;;;;4999673;28;20040;-75
2022/09/26 07:34:23;;;;;;;9.00;4.10;;;10.70;99.90;;;;;;5039353;28;20052;-75
2022/09/26 07:36:50;;;;;;;7.30;3.42;;;10.70;99.90;;;;;;5025310;28;20076;-75
2022/09/26 07:39:16;;;;;;;7.15;3.45;;;10.70;99.90;;;;;;5023167;28;20380;-75
2022/09/26 07:41:43;;;;;;;8.38;3.58;;;10.80;99.90;;;;;;5018378;28;20041;-75
2022/09/26 07:44:09;;;;;;;7.90;3.95;;;10.70;99.90;;;;;;5025788;28;20044;-75
2022/09/26 07:52:03;;;;;;;8.20;4.05;;;10.70;99.90;;;;;;5029483;28;20052;-75
2022/09/26 07:54:28;;;;;;;8.45;4.00;;;10.80;99.90;;;;;;5034593;28;20045;-76
2022/09/26 07:56:54;;;;;;;6.15;3.30;;;10.80;99.90;;;;;;5030618;28;20048;-76
2022/09/26 07:59:21;;;;;;;8.20;3.88;;;10.90;99.90;;;;;;5027741;28;20045;-75
2022/09/26 08:01:47;;;;;;;8.85;3.78;;;10.90;99.90;;;;;;5035526;28;20449;-75
2022/09/26 08:04:14;;;;;;;6.40;3.78;;;11.00;99.90;;;;;;5034410;28;20045;-76
2022/09/26 08:06:40;;;;;;;7.07;3.80;;;11.10;99.90;;;;;;5053461;28;20103;-77
2022/09/26 08:09:06;;;;;;;6.63;3.55;;;11.00;99.90;;;;;;5031645;28;20041;-75
2022/09/26 08:11:33;;;;;;;7.05;3.65;;;11.10;99.90;;;;;;5034075;28;20127;-76
2022/09/26 08:14:00;;;;;;;6.05;3.38;;;11.20;99.90;;;;;;5035345;28;20543;-75
2022/09/26 08:16:25;;;;;;;6.03;3.40;;;11.20;99.90;;;;;;5039753;28;20056;-75
2022/09/26 08:18:52;;;;;;;7.43;3.38;;;11.20;99.90;;;;;;5033947;28;20040;-76
2022/09/26 08:21:19;;;;;;;7.20;3.22;;;11.20;99.90;;;;;;5052370;28;20033;-76
2022/09/26 08:23:46;;;;;;;6.72;3.42;;;11.20;99.90;;;;;;5027063;28;20041;-76
2022/09/26 08:26:12;;;;;;;10.00;3.28;;;11.30;99.90;;;;;;5034486;28;20108;-76
2022/09/26 08:28:38;;;;;;;6.00;3.35;;;11.20;99.90;;;;;;5029721;28;20116;-76
2022/09/26 08:31:04;;;;;;;7.63;3.45;;;11.30;99.90;;;;;;5079367;28;20040;-76
2022/09/26 08:33:35;;;;;;;7.63;3.28;;;11.30;99.90;;;;;;5068327;28;20253;-76
2022/09/26 08:36:12;;;;;;;7.78;3.30;;;11.30;99.90;;;;;;5078180;28;20036;-75
2022/09/26 08:38:38;;;;;;;9.02;3.47;;;11.40;99.90;;;;;;5065573;28;20037;-76
2022/09/26 08:41:19;;;;;;;7.18;3.42;;;11.40;99.90;;;;;;5063509;28;20509;-76
2022/09/26 08:44:04;;;;;;;5.30;2.87;;;11.40;99.90;;;;;;5064403;28;20048;-76
2022/09/26 08:49:41;;;;;;;6.55;3.28;;;11.40;99.90;;;;;;5061873;28;20049;-76
2022/09/26 08:52:47;;;;;;;8.50;3.10;;;11.40;99.90;;;;;;5061713;28;20090;-76
2022/09/26 08:55:29;;;;;;;5.38;2.78;;;11.40;99.90;;;;;;5007695;28;20407;-76
2022/09/26 08:57:59;;;;;;;6.80;3.50;;;11.40;99.90;;;;;;5054934;28;20051;-76
2022/09/26 09:00:29;;;;;;;5.82;2.80;;;11.50;99.90;;;;;;5068524;28;20081;-76
2022/09/26 09:03:20;;;;;;;7.07;3.17;;;11.50;99.90;;;;;;5074191;28;20045;-75
2022/09/26 09:06:13;;;;;;;7.63;3.58;;;11.50;99.90;;;;;;5065049;28;20046;-75
2022/09/26 09:08:42;;;;;;;8.50;3.45;;;11.60;99.90;;;;;;5067386;28;20414;-75
2022/09/26 09:11:21;;;;;;;8.95;3.00;;;11.60;99.90;;;;;;5068051;28;20036;-75
2022/09/26 09:14:38;;;;;;;7.93;3.35;;;11.60;99.90;;;;;;5066083;28;20513;-75
2022/09/26 09:17:19;;;;;;;6.07;3.45;;;11.60;99.90;;;;;;5041294;28;20049;-75
2022/09/26 09:20:13;;;;;;;7.47;3.85;;;11.60;99.90;;;;;;5056879;28;20463;-74
2022/09/26 09:22:59;;;;;;;9.23;3.75;;;11.60;99.90;;;;;;5054197;28;20611;-75
2022/09/26 09:25:31;;;;;;;6.25;3.58;;;11.60;99.90;;;;;;5057734;28;20041;-75
2022/09/26 09:28:24;;;;;;;8.25;3.50;;;11.70;99.90;;;;;;5055795;28;20036;-75
2022/09/26 09:31:02;;;;;;;7.18;3.60;;;11.70;99.90;;;;;;5046468;28;20043;-76
2022/09/26 09:33:28;;;;;;;8.02;3.70;;;11.70;99.90;;;;;;5069837;28;20036;-75
2022/09/26 09:36:09;;;;;;;7.07;3.70;;;11.70;99.90;;;;;;5066874;28;20040;-76
2022/09/26 09:38:38;;;;;;;7.33;4.00;;;11.70;99.90;;;;;;5068172;28;20036;-76
2022/09/26 09:41:19;;;;;;;8.05;3.90;;;11.70;99.90;;;;;;5066403;28;20279;-76
2022/09/26 09:43:53;;;;;;;11.25;4.03;;;11.70;99.90;;;;;;5066319;28;20047;-76
2022/09/26 09:46:22;;;;;;;6.57;3.70;;;11.80;99.90;;;;;;5070545;28;20623;-76
2022/09/26 09:48:52;;;;;;;9.65;3.65;;;11.90;99.90;;;;;;5073141;28;20047;-76
2022/09/26 09:51:46;;;;;;;8.60;3.78;;;11.80;99.90;;;;;;5077829;28;20086;-76
2022/09/26 09:54:47;;;;;;;11.50;4.10;;;11.80;99.90;;;;;;5069936;28;20486;-76
2022/09/26 09:57:15;;;;;;;10.65;3.92;;;11.70;99.90;;;;;;5053628;28;20048;-76
2022/09/26 09:59:50;;;;;;;11.77;3.78;;;11.70;99.90;;;;;;5045620;28;20041;-74
2022/09/26 10:02:15;;;;;;;9.57;3.58;;;11.70;99.90;;;;;;5062149;28;20040;-74
2022/09/26 10:04:59;;;;;;;11.00;4.05;;;11.70;99.90;;;;;;5069835;28;20058;-74
2022/09/26 10:07:26;;;;;;;7.10;3.42;;;11.70;99.90;;;;;;5068558;28;20032;-75
2022/09/26 10:09:52;;;;;;;10.55;4.22;;;11.80;99.90;;;;;;5069079;28;20063;-76
2022/09/26 10:12:21;;;;;;;7.10;3.67;;;11.80;99.90;;;;;;5069367;28;20111;-75
2022/09/26 10:14:53;;;;;;;8.88;3.85;;;11.80;99.90;;;;;;5070092;28;20487;-77
2022/09/26 10:17:21;;;;;;;9.20;3.50;;;11.80;99.90;;;;;;5069347;28;20044;-75
2022/09/26 10:19:47;;;;;;;9.73;3.72;;;11.80;99.90;;;;;;5067519;28;20536;-75
2022/09/26 10:22:28;;;;;;;8.73;3.45;;;11.80;99.90;;;;;;5068247;28;20067;-75
2022/09/26 10:25:01;;;;;;;10.25;4.15;;;11.80;99.90;;;;;;5058987;28;20409;-75
2022/09/26 10:27:35;;;;;;;7.60;3.47;;;11.80;99.90;;;;;;5063987;28;20406;-78
2022/09/26 10:30:17;;;;;;;7.80;3.55;;;11.80;99.90;;;;;;5062028;28;20037;-75
2022/09/26 10:32:49;;;;;;;9.80;4.00;;;11.80;99.90;;;;;;5057423;28;20520;-75
2022/09/26 10:35:45;;;;;;;7.03;3.83;;;11.80;99.90;;;;;;5063142;28;20051;-78
2022/09/26 10:38:26;;;;;;;7.57;4.03;;;11.90;99.90;;;;;;5054072;28;20083;-76
2022/09/26 10:41:02;;;;;;;9.57;3.95;;;11.80;99.90;;;;;;5066250;28;20044;-78
2022/09/26 10:43:29;;;;;;;9.00;4.30;;;11.70;99.90;;;;;;5066142;28;20401;-78
2022/09/26 10:46:15;;;;;;;8.15;4.03;;;11.80;99.90;;;;;;5066436;28;20090;-75
2022/09/26 10:48:56;;;;;;;6.75;3.72;;;11.80;99.90;;;;;;5059044;28;20059;-75
2022/09/26 10:51:43;;;;;;;9.00;4.10;;;11.80;99.90;;;;;;5062471;28;20154;-76
2022/09/26 10:54:11;;;;;;;9.02;4.00;;;11.70;99.90;;;;;;5066131;28;20102;-76
2022/09/26 10:56:42;;;;;;;8.82;4.22;;;11.80;99.90;;;;;;5065404;28;20127;-75
2022/09/26 10:59:10;;;;;;;8.02;3.50;;;11.80;99.90;;;;;;5048831;28;20036;-75
2022/09/26 11:01:43;;;;;;;6.07;3.33;;;11.80;99.90;;;;;;5065827;28;20033;-74
2022/09/26 11:05:55;;;;;;;7.25;3.70;;;11.80;99.90;;;;;;5058122;28;20124;-75
2022/09/26 11:07:01;;;;;;;6.60;3.63;;;11.90;99.90;;;;;;5056633;28;20044;-76
2022/09/26 11:09:26;;;;;;;7.00;3.95;;;11.80;99.90;;;;;;5059726;28;20490;-75
2022/09/26 11:11:54;;;;;;;8.20;4.13;;;11.90;99.90;;;;;;5067704;28;20032;-75
2022/09/26 11:14:31;;;;;;;6.38;3.70;;;11.90;99.90;;;;;;5069380;28;20056;-76
2022/09/26 11:16:58;;;;;;;8.07;4.20;;;11.70;99.90;;;;;;5061140;28;20055;-76
2022/09/26 11:20:02;;;;;;;6.93;3.90;;;11.90;99.90;;;;;;5069548;28;20116;-75
2022/09/26 11:22:36;;;;;;;7.05;3.90;;;11.90;99.90;;;;;;4980975;28;20651;-75
2022/09/26 11:25:24;;;;;;;7.35;4.05;;;11.90;99.90;;;;;;5006402;28;20049;-75
2022/09/26 11:28:16;;;;;;;8.00;3.90;;;11.90;99.90;;;;;;5051086;28;20051;-75
2022/09/26 11:30:47;;;;;;;6.68;3.85;;;11.90;99.90;;;;;;5061860;28;20048;-75
2022/09/26 11:33:17;;;;;;;7.50;3.45;;;12.00;99.90;;;;;;5066513;28;20325;-75
2022/09/26 11:35:58;;;;;;;7.32;4.05;;;11.90;99.90;;;;;;5066745;28;20080;-75
2022/09/26 11:38:37;;;;;;;7.40;4.05;;;12.00;99.90;;;;;;5068900;28;20537;-75
2022/09/26 11:41:35;;;;;;;8.55;4.20;;;12.00;99.90;;;;;;5067770;28;20625;-75
2022/09/26 11:44:16;;;;;;;6.38;3.42;;;12.00;99.90;;;;;;5067288;28;20469;-75
2022/09/26 11:47:06;;;;;;;7.32;3.92;;;12.00;99.90;;;;;;5055838;28;20044;-75
2022/09/26 11:50:14;;;;;;;6.35;3.30;;;12.00;99.90;;;;;;5069180;28;20044;-75
2022/09/26 11:52:42;;;;;;;7.47;3.70;;;12.00;99.90;;;;;;5064393;28;20452;-75
2022/09/26 11:55:23;;;;;;;8.88;3.83;;;12.00;99.90;;;;;;5067514;28;20103;-75
2022/09/26 11:58:13;;;;;;;5.38;3.42;;;12.00;99.90;;;;;;5040446;28;20120;-75
2022/09/26 12:00:56;;;;;;;5.30;3.38;;;12.00;99.90;;;;;;5069909;28;20040;-75
2022/09/26 12:03:37;;;;;;;4.43;3.20;;;12.00;99.90;;;;;;5057783;28;20487;-75
2022/09/26 12:06:32;;;;;;;6.32;3.60;;;12.00;99.90;;;;;;5076342;28;20044;-76
2022/09/26 12:09:10;;;;;;;8.43;3.00;;;12.00;99.90;;;;;;5066268;28;20044;-75
2022/09/26 12:11:55;;;;;;;5.55;3.25;;;12.00;99.90;;;;;;5066865;28;20068;-75
2022/09/26 12:15:07;;;;;;;5.70;3.55;;;12.00;99.90;;;;;;5070418;28;20154;-74
2022/09/26 12:18:12;;;;;;;5.18;3.00;;;12.00;99.90;;;;;;5071422;28;20109;-75
2022/09/26 12:21:03;;;;;;;5.53;3.28;;;12.00;99.90;;;;;;5023659;28;20415;-74
2022/09/26 12:23:38;;;;;;;6.05;3.08;;;12.00;99.90;;;;;;5051339;28;20044;-74
2022/09/26 12:26:27;;;;;;;4.90;3.15;;;12.00;99.90;;;;;;5070560;28;20044;-75
2022/09/26 12:29:08;;;;;;;4.13;2.78;;;12.00;99.90;;;;;;5067608;28;20075;-75
2022/09/26 12:31:37;;;;;;;4.20;3.03;;;12.00;99.90;;;;;;5065855;28;20048;-75
2022/09/26 12:34:25;;;;;;;5.70;3.15;;;12.00;99.90;;;;;;5067251;28;20041;-75
2022/09/26 12:37:22;;;;;;;5.80;2.90;;;12.00;99.90;;;;;;5063341;28;20044;-75
2022/09/26 12:39:56;;;;;;;5.40;2.28;;;12.00;99.90;;;;;;5065620;28;20549;-78
2022/09/26 12:42:47;;;;;;;4.18;2.60;;;12.00;99.90;;;;;;5058792;28;20058;-75
2022/09/26 12:45:41;;;;;;;4.20;2.60;;;12.00;99.90;;;;;;5062002;28;20410;-76
2022/09/26 12:48:24;;;;;;;3.47;2.10;;;12.10;99.90;;;;;;5062366;28;20087;-74
2022/09/26 12:51:15;;;;;;;6.15;2.60;;;12.00;99.90;;;;;;5058503;28;20102;-76
2022/09/26 12:53:40;;;;;;;4.72;2.38;;;12.00;99.90;;;;;;5074390;28;20044;-75
2022/09/26 12:56:08;;;;;;;4.97;2.60;;;12.00;99.90;;;;;;5077626;28;20110;-75
2022/09/26 12:58:48;;;;;;;4.30;2.60;;;12.10;99.90;;;;;;5053130;28;20086;-75
2022/09/26 13:01:52;;;;;;;4.18;2.47;;;12.10;99.90;;;;;;5052533;28;20044;-75
2022/09/26 13:04:40;;;;;;;4.25;2.20;;;12.10;99.90;;;;;;5063678;28;20126;-75
2022/09/26 13:07:09;;;;;;;5.57;2.58;;;12.00;99.90;;;;;;5062195;28;20116;-75
2022/09/26 13:09:37;;;;;;;4.15;2.40;;;12.10;99.90;;;;;;5061360;28;20044;-74
2022/09/26 13:12:15;;;;;;;3.45;2.42;;;12.10;99.90;;;;;;5058538;28;20044;-76
2022/09/26 13:15:17;;;;;;;5.82;3.50;;;12.20;99.90;;;;;;5065300;28;20047;-75
2022/09/26 13:17:51;;;;;;;6.30;4.97;;;12.20;99.90;;;;;;5058359;28;20469;-75
2022/09/26 13:20:26;;;;;;;4.57;3.30;;;12.20;99.90;;;;;;5064126;28;20106;-74
2022/09/26 13:23:26;;;;;;;5.82;4.43;;;12.20;99.90;;;;;;5064946;28;20574;-74
2022/09/26 13:26:24;;;;;;;7.07;4.13;;;12.20;99.90;;;;;;5060252;28;20048;-76